Time;durP1;ratioP1;P1;durP2;ratioP2;P2;SDS_P1;SDS_P2;PMS_P1;PMS_P2;Temp;Humidity;BMP_temperature;BMP_pressure;BME280_temperature;BME280_humidity;BME280_pressure;Samples;Min_cycle;Max_cycle;Signal;HPM_P1;HPM_P2
2022/10/02 00:01:19;;;;;;;8.33;6.07;;;;;;;9.63;100.00;99184.31;5006212;28;20248;-84
2022/10/02 00:03:55;;;;;;;9.50;5.23;;;;;;;9.43;100.00;99184.66;5007861;28;20226;-84
2022/10/02 00:06:29;;;;;;;24.90;7.60;;;;;;;9.43;100.00;99187.28;5011436;28;20198;-83
2022/10/02 00:09:03;;;;;;;47.57;8.53;;;;;;;9.44;100.00;99191.63;5054052;28;20278;-83
2022/10/02 00:11:42;;;;;;;12.47;6.17;;;;;;;9.41;100.00;99195.31;4992714;28;20601;-83
2022/10/02 00:14:46;;;;;;;11.90;7.20;;;;;;;9.42;100.00;99189.09;4988421;28;20316;-83
2022/10/02 00:17:22;;;;;;;8.47;6.20;;;;;;;9.44;100.00;99194.28;4954793;28;20228;-83
2022/10/02 00:19:54;;;;;;;17.27;5.60;;;;;;;9.17;100.00;99196.75;4974671;28;20245;-83
2022/10/02 00:22:38;;;;;;;16.77;4.97;;;;;;;9.20;100.00;99201.00;4987121;28;20207;-84
2022/10/02 00:25:20;;;;;;;11.83;4.70;;;;;;;9.06;100.00;99196.50;4990280;28;20201;-83
2022/10/02 00:28:07;;;;;;;28.63;7.93;;;;;;;9.24;100.00;99189.31;5009662;28;20677;-83
2022/10/02 00:30:52;;;;;;;12.77;5.87;;;;;;;9.33;100.00;99186.97;5059188;28;20271;-84
2022/10/02 00:33:27;;;;;;;13.13;5.80;;;;;;;9.24;100.00;99197.22;5043535;28;20198;-83
2022/10/02 00:36:16;;;;;;;14.77;6.30;;;;;;;9.41;100.00;99199.75;5033882;28;20201;-84
2022/10/02 00:38:51;;;;;;;26.00;7.43;;;;;;;9.56;100.00;99203.31;5029535;28;20209;-83
2022/10/02 00:41:50;;;;;;;13.67;6.57;;;;;;;9.64;100.00;99204.53;5029079;28;20205;-84
2022/10/02 00:44:38;;;;;;;14.97;7.03;;;;;;;9.65;100.00;99200.09;5020057;28;20325;-84
2022/10/02 00:47:16;;;;;;;13.17;6.97;;;;;;;9.71;100.00;99200.56;5034918;28;20201;-84
2022/10/02 00:49:56;;;;;;;19.63;10.80;;;;;;;9.80;100.00;99195.69;5057265;28;20253;-84
2022/10/02 00:52:48;;;;;;;27.47;9.57;;;;;;;9.87;100.00;99194.38;5087709;28;20184;-83
2022/10/02 00:55:38;;;;;;;22.63;9.90;;;;;;;9.96;100.00;99213.19;5012582;28;20186;-84
2022/10/02 00:58:44;;;;;;;41.53;12.73;;;;;;;9.87;100.00;99218.19;5019003;28;20219;-84
2022/10/02 01:01:17;;;;;;;25.73;11.63;;;;;;;9.84;100.00;99216.56;5012448;28;20217;-84
2022/10/02 01:03:52;;;;;;;54.13;13.37;;;;;;;9.82;100.00;99217.59;4980728;28;20311;-83
2022/10/02 01:06:26;;;;;;;19.87;11.43;;;;;;;9.82;100.00;99217.59;4952851;28;20192;-83
2022/10/02 01:08:55;;;;;;;24.30;11.00;;;;;;;9.89;100.00;99216.28;4998162;28;20215;-84
2022/10/02 01:11:26;;;;;;;24.20;11.83;;;;;;;9.82;100.00;99215.81;4991099;28;20207;-83
2022/10/02 01:13:57;;;;;;;33.37;9.53;;;;;;;9.58;100.00;99220.78;4992367;28;20214;-84
2022/10/02 01:16:27;;;;;;;23.33;7.83;;;;;;;9.52;100.00;99218.47;4984867;28;20195;-84
2022/10/02 01:18:59;;;;;;;33.60;8.17;;;;;;;9.37;100.00;99224.69;4986681;28;20198;-84
2022/10/02 01:21:38;;;;;;;70.03;10.10;;;;;;;9.23;100.00;99225.44;5004060;28;20191;-84
2022/10/02 01:24:13;;;;;;;32.57;7.97;;;;;;;9.24;100.00;99219.22;5011896;28;20250;-84
2022/10/02 01:26:43;;;;;;;28.70;8.33;;;;;;;9.30;100.00;99225.97;5007699;28;20201;-84
2022/10/02 01:29:12;;;;;;;12.60;7.63;;;;;;;9.34;100.00;99233.63;5002865;28;20198;-84
2022/10/02 01:31:41;;;;;;;19.40;7.23;;;;;;;9.41;100.00;99228.84;5003214;28;20190;-84
2022/10/02 01:34:10;;;;;;;10.93;7.93;;;;;;;9.62;100.00;99235.50;5005598;28;20198;-84
2022/10/02 01:36:38;;;;;;;13.73;10.40;;;;;;;9.78;100.00;99231.97;5017099;28;20439;-83
2022/10/02 01:39:07;;;;;;;17.40;11.40;;;;;;;9.86;100.00;99230.56;5009405;28;20210;-83
2022/10/02 01:41:41;;;;;;;17.27;12.37;;;;;;;9.96;100.00;99223.78;5008573;28;20198;-84
2022/10/02 01:44:13;;;;;;;15.93;10.23;;;;;;;9.82;100.00;99236.97;5008896;28;20275;-83
2022/10/02 01:46:51;;;;;;;13.63;9.37;;;;;;;9.95;100.00;99232.66;4994149;28;20685;-84
2022/10/02 01:49:36;;;;;;;15.97;11.10;;;;;;;10.04;100.00;99231.25;5006297;28;20202;-84
2022/10/02 01:52:17;;;;;;;20.87;13.17;;;;;;;10.13;100.00;99228.03;5007513;28;20194;-83
2022/10/02 01:54:57;;;;;;;20.33;14.60;;;;;;;10.25;100.00;99227.31;5006341;28;20194;-83
2022/10/02 01:57:45;;;;;;;22.57;14.73;;;;;;;10.20;100.00;99229.34;5009890;28;20202;-83
2022/10/02 02:00:21;;;;;;;28.13;18.13;;;;;;;10.16;100.00;99230.50;5010113;28;20294;-84
2022/10/02 02:03:00;;;;;;;23.90;15.33;;;;;;;10.16;100.00;99233.16;5009807;28;20199;-83
2022/10/02 02:05:45;;;;;;;12.47;9.23;;;;;;;9.94;100.00;99236.25;5049384;28;20217;-84
2022/10/02 02:08:27;;;;;;;12.60;8.37;;;;;;;9.81;100.00;99243.19;5049022;28;20228;-84
2022/10/02 02:11:10;;;;;;;11.07;8.37;;;;;;;9.80;100.00;99241.50;5047681;28;20200;-83
2022/10/02 02:13:46;;;;;;;13.30;8.83;;;;;;;9.97;100.00;99243.16;5050683;28;20189;-83
2022/10/02 02:16:26;;;;;;;17.73;10.93;;;;;;;10.18;100.00;99238.34;5047244;28;20213;-83
2022/10/02 02:19:01;;;;;;;34.73;17.73;;;;;;;10.29;100.00;99230.63;5047123;28;20201;-83
2022/10/02 02:21:35;;;;;;;37.47;18.27;;;;;;;10.25;100.00;99227.31;5043430;28;20209;-84
2022/10/02 02:24:09;;;;;;;33.53;17.07;;;;;;;10.34;100.00;99227.72;5039502;28;20217;-83
2022/10/02 02:26:42;;;;;;;19.50;11.93;;;;;;;10.17;100.00;99236.66;5030389;28;20190;-84
2022/10/02 02:29:14;;;;;;;18.37;11.40;;;;;;;10.06;100.00;99242.59;5007949;28;20198;-83
2022/10/02 02:31:49;;;;;;;19.80;10.73;;;;;;;10.35;100.00;99240.84;5027042;28;20231;-84
2022/10/02 02:34:21;;;;;;;23.33;10.80;;;;;;;10.29;100.00;99242.06;5019906;28;20860;-84
2022/10/02 02:36:55;;;;;;;18.80;10.83;;;;;;;10.21;100.00;99238.16;5042329;28;20198;-84
2022/10/02 02:39:35;;;;;;;19.17;10.40;;;;;;;10.29;100.00;99233.28;5029026;28;20208;-83
2022/10/02 02:42:08;;;;;;;20.83;10.20;;;;;;;10.35;100.00;99235.56;5000012;28;20224;-84
2022/10/02 02:44:42;;;;;;;22.17;11.83;;;;;;;10.42;100.00;99230.69;5033079;28;20240;-84
2022/10/02 02:47:18;;;;;;;26.37;14.03;;;;;;;10.46;100.00;99226.94;5032183;28;20258;-83
2022/10/02 02:49:54;;;;;;;22.00;12.93;;;;;;;10.51;100.00;99232.78;5034749;28;20177;-83
2022/10/02 02:52:27;;;;;;;21.00;12.67;;;;;;;10.29;100.00;99235.91;5029174;28;20201;-84
2022/10/02 02:55:15;;;;;;;19.00;11.53;;;;;;;10.35;100.00;99240.84;5028379;28;20269;-84
2022/10/02 02:57:51;;;;;;;17.30;10.53;;;;;;;10.29;100.00;99246.50;5031467;28;20174;-84
2022/10/02 03:00:20;;;;;;;18.80;9.90;;;;;;;10.26;100.00;99244.91;5027745;28;20186;-84
2022/10/02 03:02:53;;;;;;;18.17;10.70;;;;;;;10.30;100.00;99253.50;5030718;28;20688;-84
2022/10/02 03:05:24;;;;;;;20.33;9.97;;;;;;;10.25;100.00;99251.16;5031528;28;20218;-84
2022/10/02 03:07:55;;;;;;;15.57;9.23;;;;;;;10.43;100.00;99245.69;5036280;28;20232;-84
2022/10/02 03:10:43;;;;;;;13.17;8.90;;;;;;;10.58;100.00;99242.06;5029295;28;20226;-84
2022/10/02 03:13:29;;;;;;;17.97;9.17;;;;;;;10.66;100.00;99237.13;5032590;28;20184;-83
2022/10/02 03:16:12;;;;;;;12.03;7.87;;;;;;;10.72;100.00;99230.59;5030491;28;20240;-84
2022/10/02 03:18:58;;;;;;;13.17;8.40;;;;;;;10.76;100.00;99232.94;5028375;28;20197;-84
2022/10/02 03:21:35;;;;;;;14.00;8.33;;;;;;;10.73;100.00;99235.81;5030827;28;20193;-83
2022/10/02 03:24:10;;;;;;;16.37;8.53;;;;;;;10.75;100.00;99231.25;5030035;28;20237;-84
2022/10/02 03:27:10;;;;;;;13.70;8.27;;;;;;;10.75;100.00;99233.06;5029414;28;20186;-84
2022/10/02 03:29:47;;;;;;;13.00;7.97;;;;;;;10.80;100.00;99237.09;5033567;28;20194;-84
2022/10/02 03:32:18;;;;;;;12.10;7.10;;;;;;;10.82;100.00;99237.88;5028000;28;20194;-83
2022/10/02 03:34:48;;;;;;;12.97;8.07;;;;;;;10.80;100.00;99244.19;5032459;28;20206;-84
2022/10/02 03:37:19;;;;;;;19.30;7.97;;;;;;;10.81;100.00;99241.47;5026120;28;20214;-84
2022/10/02 03:39:51;;;;;;;11.53;7.67;;;;;;;10.82;100.00;99245.81;5035335;28;20621;-84
2022/10/02 03:42:25;;;;;;;12.67;7.73;;;;;;;10.78;100.00;99243.44;5031858;28;20180;-84
2022/10/02 03:44:54;;;;;;;13.00;7.33;;;;;;;10.74;100.00;99245.44;5034175;28;20245;-84
2022/10/02 03:47:24;;;;;;;13.37;7.80;;;;;;;10.72;100.00;99243.84;5033258;28;20178;-84
2022/10/02 03:49:54;;;;;;;15.47;8.53;;;;;;;10.60;100.00;99248.09;5036085;28;20190;-84
2022/10/02 03:52:25;;;;;;;13.70;8.07;;;;;;;10.62;100.00;99256.81;5032662;28;20198;-84
2022/10/02 03:54:58;;;;;;;13.97;7.57;;;;;;;10.70;100.00;99245.72;5022864;28;20702;-83
2022/10/02 03:57:34;;;;;;;10.50;7.43;;;;;;;10.72;100.00;99244.69;5028623;28;20209;-84
2022/10/02 04:00:07;;;;;;;14.50;7.77;;;;;;;10.80;100.00;99245.03;5030735;28;20190;-84
2022/10/02 04:02:40;;;;;;;13.60;7.13;;;;;;;10.90;100.00;99242.66;5038319;27;20218;-84
2022/10/02 04:05:21;;;;;;;16.33;7.23;;;;;;;10.95;100.00;99247.66;5034256;28;20237;-84
2022/10/02 04:07:53;;;;;;;10.93;7.13;;;;;;;10.92;100.00;99247.88;5031441;28;20197;-83
2022/10/02 04:10:31;;;;;;;14.47;7.33;;;;;;;10.97;100.00;99253.72;5034246;28;20198;-84
2022/10/02 04:13:10;;;;;;;12.07;7.03;;;;;;;11.04;100.00;99255.03;5034069;27;20197;-83
2022/10/02 04:15:52;;;;;;;16.10;7.10;;;;;;;11.00;100.00;99249.09;5034040;28;20193;-84
2022/10/02 04:18:26;;;;;;;12.43;7.53;;;;;;;10.96;100.00;99254.66;5019470;28;20254;-83
2022/10/02 04:21:01;;;;;;;18.27;7.83;;;;;;;10.91;100.00;99257.63;5031437;28;20218;-84
2022/10/02 04:23:36;;;;;;;13.53;7.57;;;;;;;11.01;100.00;99245.50;5016877;28;20243;-83
2022/10/02 04:26:10;;;;;;;13.40;7.60;;;;;;;11.12;100.00;99260.69;5013186;28;20230;-84
2022/10/02 04:28:42;;;;;;;22.07;8.23;;;;;;;11.16;100.00;99260.38;5011969;28;20276;-84
2022/10/02 04:31:12;;;;;;;14.83;8.27;;;;;;;11.16;100.00;99263.03;5025960;28;20640;-84
2022/10/02 04:33:41;;;;;;;14.37;7.87;;;;;;;11.10;100.00;99260.81;5034005;28;20624;-84
2022/10/02 04:36:28;;;;;;;16.57;8.13;;;;;;;11.16;100.00;99263.03;5015021;28;20194;-84
2022/10/02 04:39:14;;;;;;;17.37;8.77;;;;;;;11.14;100.00;99253.50;5032873;28;20194;-83
2022/10/02 04:42:17;;;;;;;15.57;8.70;;;;;;;11.16;100.00;99254.25;5066632;28;20209;-83
2022/10/02 04:45:09;;;;;;;15.93;7.67;;;;;;;11.30;100.00;99248.91;5058267;28;20200;-83
2022/10/02 04:47:57;;;;;;;19.30;8.27;;;;;;;11.20;100.00;99263.72;5067332;28;20211;-84
2022/10/02 04:50:42;;;;;;;16.10;7.20;;;;;;;11.23;100.00;99249.41;5067115;28;20250;-84
2022/10/02 04:53:37;;;;;;;19.37;7.30;;;;;;;11.23;100.00;99258.19;5070350;28;20249;-84
2022/10/02 04:56:24;;;;;;;13.17;7.20;;;;;;;11.21;100.00;99259.25;5069465;28;20201;-84
2022/10/02 04:59:05;;;;;;;17.53;7.13;;;;;;;11.19;100.00;99256.69;5064755;28;20200;-84
2022/10/02 05:01:51;;;;;;;12.73;6.83;;;;;;;11.27;100.00;99250.88;5036624;28;20337;-84
2022/10/02 05:04:39;;;;;;;12.30;5.93;;;;;;;11.23;100.00;99260.84;5035056;28;20190;-83
2022/10/02 05:07:23;;;;;;;16.17;6.07;;;;;;;11.24;100.00;99264.34;5076048;28;20222;-84
2022/10/02 05:10:03;;;;;;;11.87;5.97;;;;;;;11.32;100.00;99259.41;5068893;28;20228;-84
2022/10/02 05:12:46;;;;;;;12.87;6.20;;;;;;;11.29;100.00;99260.47;5046894;28;20193;-84
2022/10/02 05:15:58;;;;;;;15.33;6.23;;;;;;;11.30;100.00;99262.16;5064176;28;20536;-84
2022/10/02 05:19:02;;;;;;;11.17;6.07;;;;;;;11.33;100.00;99261.09;4967890;28;20204;-84
2022/10/02 05:21:59;;;;;;;15.20;7.73;;;;;;;11.35;100.00;99265.34;5071029;28;20200;-84
2022/10/02 05:24:44;;;;;;;16.10;7.00;;;;;;;11.30;100.00;99267.47;5058397;28;20219;-84
2022/10/02 05:27:55;;;;;;;14.20;6.50;;;;;;;11.32;100.00;99267.34;5012048;28;20225;-85
2022/10/02 05:30:27;;;;;;;16.90;7.60;;;;;;;11.38;100.00;99269.59;5014906;28;20200;-84
2022/10/02 05:33:31;;;;;;;16.03;7.10;;;;;;;11.41;100.00;99274.72;5015753;28;20198;-83
2022/10/02 05:36:24;;;;;;;12.90;5.23;;;;;;;11.43;100.00;99283.41;5029490;28;20201;-84
2022/10/02 05:39:24;;;;;;;15.73;6.43;;;;;;;11.45;100.00;99282.34;5033313;28;20247;-84
2022/10/02 05:42:01;;;;;;;12.33;5.60;;;;;;;11.46;100.00;99286.72;5032226;28;20185;-84
2022/10/02 05:44:39;;;;;;;12.77;5.07;;;;;;;11.50;100.00;99281.22;5006958;28;20220;-83
2022/10/02 05:47:16;;;;;;;14.77;5.43;;;;;;;11.54;100.00;99277.41;5009345;28;20246;-83
2022/10/02 05:49:51;;;;;;;12.30;5.47;;;;;;;11.59;100.00;99278.81;5011792;28;20198;-83
2022/10/02 05:52:24;;;;;;;13.03;5.37;;;;;;;11.55;100.00;99272.00;5014803;28;20198;-84
2022/10/02 05:54:57;;;;;;;12.27;5.57;;;;;;;11.62;100.00;99275.94;5009686;28;20243;-84
2022/10/02 05:57:36;;;;;;;11.83;5.40;;;;;;;11.67;100.00;99271.16;5085783;28;20188;-84
2022/10/02 06:00:22;;;;;;;15.90;5.77;;;;;;;11.70;100.00;99270.97;5085939;28;20203;-84
2022/10/02 06:03:00;;;;;;;14.87;5.60;;;;;;;11.59;100.00;99270.00;5086276;28;20210;-84
2022/10/02 06:05:41;;;;;;;12.90;6.20;;;;;;;11.56;100.00;99272.84;5084387;28;20200;-84
2022/10/02 06:08:14;;;;;;;11.33;6.50;;;;;;;11.62;100.00;99269.78;4990929;28;20199;-84
2022/10/02 06:10:48;;;;;;;12.47;5.40;;;;;;;11.59;100.00;99265.53;4989035;28;20195;-84
2022/10/02 06:13:23;;;;;;;14.33;6.07;;;;;;;11.63;100.00;99272.34;4971055;28;20234;-84
2022/10/02 06:16:08;;;;;;;13.73;6.50;;;;;;;11.63;100.00;99271.50;5006196;28;20204;-84
2022/10/02 06:18:43;;;;;;;11.93;5.70;;;;;;;11.56;100.00;99268.38;5011496;28;20198;-84
2022/10/02 06:21:23;;;;;;;13.53;6.30;;;;;;;11.71;100.00;99272.69;5001822;28;20233;-84
2022/10/02 06:23:56;;;;;;;12.60;5.60;;;;;;;11.71;100.00;99283.28;5020644;28;20244;-84
2022/10/02 06:26:40;;;;;;;17.23;6.80;;;;;;;11.69;100.00;99285.22;5016545;28;20325;-84
2022/10/02 06:29:14;;;;;;;20.03;10.33;;;;;;;11.65;100.00;99285.50;5006687;28;20679;-83
2022/10/02 06:32:00;;;;;;;24.50;12.50;;;;;;;11.73;100.00;99291.16;4998617;28;20252;-84
2022/10/02 06:34:29;;;;;;;16.77;8.37;;;;;;;11.58;100.00;99285.06;5007230;28;20226;-84
2022/10/02 06:37:21;;;;;;;14.60;7.37;;;;;;;11.78;100.00;99281.09;5003372;28;20203;-84
2022/10/02 06:40:10;;;;;;;13.73;8.13;;;;;;;11.80;100.00;99292.47;5001354;28;20199;-84
2022/10/02 06:42:53;;;;;;;14.23;8.57;;;;;;;11.80;100.00;99303.09;5039797;28;20229;-84
2022/10/02 06:45:30;;;;;;;14.30;6.43;;;;;;;11.64;100.00;99300.56;5006825;28;20290;-84
2022/10/02 06:48:08;;;;;;;57.67;34.07;;;;;;;11.60;100.00;99295.56;5003752;28;20253;-84
2022/10/02 06:50:51;;;;;;;18.23;6.13;;;;;;;11.84;100.00;99296.63;5088122;28;20215;-84
2022/10/02 06:53:35;;;;;;;14.90;6.63;;;;;;;12.03;100.00;99299.72;5090393;28;20727;-85
2022/10/02 06:56:21;;;;;;;18.60;5.83;;;;;;;12.06;100.00;99296.00;5091195;28;20198;-84
2022/10/02 06:59:03;;;;;;;22.13;9.67;;;;;;;12.11;100.00;99304.53;5084750;28;20199;-84
2022/10/02 07:01:45;;;;;;;12.83;6.27;;;;;;;11.99;100.00;99300.91;5092669;28;20266;-84
2022/10/02 07:04:50;;;;;;;22.63;11.47;;;;;;;11.99;100.00;99302.72;5087517;28;20701;-84
2022/10/02 07:07:39;;;;;;;16.00;5.33;;;;;;;12.11;100.00;99301.88;5086111;28;20208;-83
2022/10/02 07:10:17;;;;;;;13.97;6.30;;;;;;;12.10;100.00;99318.75;5090314;28;20225;-84
2022/10/02 07:13:26;;;;;;;21.17;6.30;;;;;;;12.18;100.00;99312.94;5090812;28;20191;-84
2022/10/02 07:16:13;;;;;;;14.30;5.47;;;;;;;12.15;100.00;99310.47;5086336;28;20223;-84
2022/10/02 07:19:01;;;;;;;16.00;5.90;;;;;;;12.25;100.00;99316.84;5083767;28;20183;-84
2022/10/02 07:21:38;;;;;;;20.67;5.80;;;;;;;12.36;100.00;99322.31;5050269;28;20190;-84
2022/10/02 07:24:24;;;;;;;18.60;5.10;;;;;;;12.27;100.00;99329.09;5012740;28;20367;-84
2022/10/02 07:26:56;;;;;;;13.77;4.50;;;;;;;12.30;100.00;99328.03;5012959;28;20214;-84
2022/10/02 07:29:44;;;;;;;17.27;5.30;;;;;;;12.39;100.00;99332.72;5008783;28;20222;-84
2022/10/02 07:32:52;;;;;;;20.63;4.77;;;;;;;12.47;100.00;99337.50;5007764;28;20194;-84
2022/10/02 07:35:45;;;;;;;13.77;4.10;;;;;;;12.63;100.00;99340.78;5009376;28;20729;-84
2022/10/02 07:38:59;;;;;;;18.90;4.37;;;;;;;12.67;100.00;99334.31;5094332;28;20253;-84
2022/10/02 07:41:53;;;;;;;19.83;4.80;;;;;;;12.84;100.00;99334.00;5102839;28;20244;-84
2022/10/02 07:44:55;;;;;;;13.30;3.97;;;;;;;12.93;100.00;99327.13;5088195;28;20200;-84
2022/10/02 07:47:43;;;;;;;14.53;3.93;;;;;;;13.07;100.00;99332.34;5014972;28;20225;-84
2022/10/02 07:50:15;;;;;;;17.00;4.33;;;;;;;13.08;100.00;99327.88;5009000;28;20198;-84
2022/10/02 07:52:53;;;;;;;18.97;3.97;;;;;;;13.21;100.00;99338.50;5005026;28;20226;-84
2022/10/02 07:55:24;;;;;;;16.80;3.87;;;;;;;13.28;100.00;99337.97;5007769;28;20195;-84
2022/10/02 07:58:03;;;;;;;17.50;3.93;;;;;;;13.28;100.00;99332.63;5006850;28;20243;-84
2022/10/02 08:00:39;;;;;;;13.90;3.40;;;;;;;13.31;100.00;99327.09;4946625;29;20229;-84
2022/10/02 08:03:15;;;;;;;17.17;3.77;;;;;;;13.39;100.00;99337.19;4948541;28;20239;-84
2022/10/02 08:05:48;;;;;;;12.57;3.43;;;;;;;13.35;100.00;99333.06;4952722;28;20191;-84
2022/10/02 08:08:25;;;;;;;9.77;3.40;;;;;;;13.43;100.00;99323.56;4968318;28;20215;-84
2022/10/02 08:11:02;;;;;;;17.10;3.53;;;;;;;13.48;100.00;99323.19;4967243;28;20199;-84
2022/10/02 08:13:48;;;;;;;12.10;2.97;;;;;;;13.51;100.00;99325.66;4988797;28;20295;-84
2022/10/02 08:16:22;;;;;;;9.60;2.93;;;;;;;13.49;100.00;99326.72;5012072;28;20232;-84
2022/10/02 08:18:58;;;;;;;14.30;3.00;;;;;;;13.52;100.00;99329.16;5011564;28;20190;-84
2022/10/02 08:21:32;;;;;;;11.47;3.13;;;;;;;13.45;100.00;99320.78;4968789;28;20191;-84
2022/10/02 08:24:05;;;;;;;9.23;2.60;;;;;;;13.59;100.00;99317.94;4970936;28;20192;-83
2022/10/02 08:26:37;;;;;;;8.37;2.60;;;;;;;13.56;100.00;99323.50;4943763;28;20313;-84
2022/10/02 08:29:11;;;;;;;11.90;2.87;;;;;;;13.50;100.00;99320.44;4972216;28;20207;-83
2022/10/02 08:31:42;;;;;;;12.73;2.80;;;;;;;13.55;100.00;99319.13;5007528;28;20193;-83
2022/10/02 08:34:21;;;;;;;8.20;2.67;;;;;;;13.71;100.00;99318.88;5029635;28;20202;-83
2022/10/02 08:37:17;;;;;;;10.33;2.50;;;;;;;13.61;100.00;99310.72;5034138;28;20201;-83
2022/10/02 08:40:34;;;;;;;11.00;2.80;;;;;;;13.73;100.00;99314.28;4992673;28;20226;-83
2022/10/02 08:43:37;;;;;;;9.33;2.70;;;;;;;13.56;100.00;99315.50;4992751;28;20200;-83
2022/10/02 08:46:40;;;;;;;9.70;2.50;;;;;;;13.50;100.00;99315.09;4934433;29;20233;-83
2022/10/02 08:49:57;;;;;;;13.30;3.40;;;;;;;13.58;100.00;99320.72;4936206;29;20248;-84
2022/10/02 08:52:55;;;;;;;8.73;2.80;;;;;;;13.66;100.00;99327.19;4885826;28;20279;-83
2022/10/02 08:55:45;;;;;;;12.13;3.30;;;;;;;13.57;100.00;99325.19;5010732;28;20221;-83
2022/10/02 08:58:47;;;;;;;8.43;2.80;;;;;;;13.74;100.00;99313.31;4961134;28;20203;-83
2022/10/02 09:01:42;;;;;;;5.90;3.63;;;;;;;13.60;100.00;99308.13;4982405;28;20255;-83
2022/10/02 09:04:42;;;;;;;10.73;3.03;;;;;;;13.68;100.00;99314.59;4982393;28;20285;-83
2022/10/02 09:07:49;;;;;;;11.87;6.77;;;;;;;13.75;100.00;99307.00;5030367;28;20229;-83
2022/10/02 09:10:54;;;;;;;9.33;2.77;;;;;;;13.80;100.00;99309.31;5011214;28;20199;-83
2022/10/02 09:14:08;;;;;;;10.17;3.60;;;;;;;13.69;100.00;99310.13;4956041;28;20247;-83
2022/10/02 09:16:50;;;;;;;6.23;2.50;;;;;;;13.87;100.00;99313.22;5004989;28;20202;-82
2022/10/02 09:19:33;;;;;;;6.83;2.60;;;;;;;13.70;100.00;99317.13;5032996;28;20205;-83
2022/10/02 09:22:11;;;;;;;8.00;2.20;;;;;;;13.85;100.00;99312.50;5018041;28;20230;-84
2022/10/02 09:25:34;;;;;;;7.30;2.53;;;;;;;13.93;100.00;99312.78;4992255;28;20196;-83
2022/10/02 09:28:49;;;;;;;16.17;8.17;;;;;;;13.80;100.00;99311.97;5024962;28;20304;-84
2022/10/02 09:31:53;;;;;;;16.63;8.20;;;;;;;13.82;100.00;99308.25;4973608;28;20206;-84
2022/10/02 09:34:51;;;;;;;14.77;7.03;;;;;;;13.85;100.00;99312.50;5035941;27;20213;-84
2022/10/02 09:38:28;;;;;;;10.23;3.43;;;;;;;14.07;100.00;99301.06;5033279;28;20259;-84
2022/10/02 09:41:20;;;;;;;7.67;3.33;;;;;;;14.03;100.00;99295.13;4968273;28;20204;-83
2022/10/02 09:44:21;;;;;;;8.37;2.57;;;;;;;14.02;100.00;99301.44;5035171;28;20197;-83
2022/10/02 09:47:25;;;;;;;6.80;2.40;;;;;;;14.07;100.00;99306.38;5041698;28;20195;-83
2022/10/02 09:50:22;;;;;;;8.90;4.23;;;;;;;14.22;100.00;99294.56;5075370;28;20186;-84
2022/10/02 09:53:31;;;;;;;7.13;2.00;;;;;;;14.21;100.00;99282.22;5090913;28;20196;-85
2022/10/02 09:56:43;;;;;;;3.97;1.80;;;;;;;14.31;100.00;99280.56;5089420;28;20196;-83
2022/10/02 09:59:53;;;;;;;6.40;1.77;;;;;;;14.51;100.00;99273.69;5068486;28;20202;-83
2022/10/02 10:03:02;;;;;;;8.43;2.43;;;;;;;14.41;100.00;99272.69;5082731;28;20227;-83
2022/10/02 10:05:55;;;;;;;5.73;2.00;;;;;;;14.33;100.00;99276.78;5090173;28;20198;-84
2022/10/02 10:08:59;;;;;;;7.53;2.43;;;;;;;14.62;100.00;99264.84;5037028;28;20218;-83
2022/10/02 10:11:53;;;;;;;4.20;1.60;;;;;;;14.66;100.00;99260.97;5009246;28;20202;-83
2022/10/02 10:15:06;;;;;;;2.90;2.00;;;;;;;14.66;100.00;99258.28;5014997;28;20691;-83
2022/10/02 10:18:14;;;;;;;4.90;1.90;;;;;;;14.50;100.00;99261.34;5054501;28;20655;-83
2022/10/02 10:21:07;;;;;;;3.23;1.90;;;;;;;14.59;100.00;99260.63;5060220;28;20199;-83
2022/10/02 10:24:19;;;;;;;3.50;1.30;;;;;;;14.47;100.00;99251.75;5048184;28;20251;-83
2022/10/02 10:27:24;;;;;;;4.47;1.63;;;;;;;14.54;100.00;99254.78;5036911;28;20242;-83
2022/10/02 10:30:27;;;;;;;5.67;1.90;;;;;;;14.38;100.00;99265.78;5053142;28;20230;-83
2022/10/02 10:33:33;;;;;;;6.70;1.87;;;;;;;14.57;100.00;99271.41;5067508;28;20199;-83
2022/10/02 10:39:53;;;;;;;4.87;1.80;;;;;;;14.29;100.00;99266.50;5038989;28;20200;-83
2022/10/02 10:42:45;;;;;;;3.90;1.30;;;;;;;14.37;100.00;99274.72;5041666;28;20189;-82
2022/10/02 10:45:50;;;;;;;2.67;1.00;;;;;;;14.62;100.00;99281.69;5005385;28;20254;-83
2022/10/02 10:48:35;;;;;;;4.03;2.10;;;;;;;14.48;100.00;99276.63;5008766;28;20221;-83
2022/10/02 10:51:30;;;;;;;5.37;1.83;;;;;;;14.66;100.00;99283.13;5005621;28;20202;-83
2022/10/02 10:54:23;;;;;;;4.13;1.50;;;;;;;14.80;100.00;99277.56;4991529;28;20203;-83
2022/10/02 10:56:56;;;;;;;3.03;1.37;;;;;;;14.88;100.00;99290.31;4968072;28;20200;-84
2022/10/02 10:59:58;;;;;;;2.33;1.30;;;;;;;14.71;100.00;99288.13;4977468;28;20191;-82
2022/10/02 11:03:03;;;;;;;4.67;1.37;;;;;;;14.66;100.00;99287.63;4991618;28;20231;-82
2022/10/02 11:06:14;;;;;;;2.63;2.07;;;;;;;14.81;100.00;99286.44;5028950;28;20215;-82
2022/10/02 11:09:19;;;;;;;5.67;1.10;;;;;;;14.94;100.00;99272.94;5020711;28;20784;-82
2022/10/02 11:12:06;;;;;;;2.63;0.87;;;;;;;15.09;100.00;99263.72;5027784;28;20198;-81
2022/10/02 11:14:54;;;;;;;2.37;1.20;;;;;;;15.10;100.00;99262.75;5029461;28;20189;-82
2022/10/02 11:17:55;;;;;;;3.03;1.20;;;;;;;15.27;100.00;99266.72;5071227;28;20188;-83
2022/10/02 11:20:44;;;;;;;4.90;1.20;;;;;;;15.43;100.00;99267.13;5060403;28;20227;-83
2022/10/02 11:23:34;;;;;;;2.33;1.50;;;;;;;15.50;100.00;99255.00;5065634;28;20235;-83
2022/10/02 11:26:26;;;;;;;2.93;1.07;;;;;;;15.61;100.00;99252.31;5063872;28;20216;-82
2022/10/02 11:29:33;;;;;;;2.37;1.10;;;;;;;15.88;100.00;99259.00;4968076;28;20247;-82
2022/10/02 11:32:27;;;;;;;2.90;0.93;;;;;;;15.34;100.00;99244.72;4967721;28;20247;-83
2022/10/02 11:35:15;;;;;;;4.90;1.30;;;;;;;15.50;100.00;99236.31;4941170;28;20207;-82
2022/10/02 11:38:02;;;;;;;2.53;1.10;;;;;;;15.41;100.00;99242.41;4966343;28;20238;-82
2022/10/02 11:40:53;;;;;;;2.53;1.00;;;;;;;15.73;100.00;99245.13;4911413;29;20213;-84
2022/10/02 11:44:01;;;;;;;3.20;1.07;;;;;;;15.53;100.00;99236.03;4912044;29;20229;-83
2022/10/02 11:46:51;;;;;;;3.33;1.20;;;;;;;15.76;100.00;99247.53;4914879;29;20206;-82
2022/10/02 11:50:00;;;;;;;5.73;1.30;;;;;;;15.75;100.00;99251.16;4913688;29;20246;-83
2022/10/02 11:53:01;;;;;;;4.10;1.20;;;;;;;16.00;100.00;99250.78;4921351;29;20201;-82
2022/10/02 11:55:48;;;;;;;4.80;1.30;;;;;;;16.24;100.00;99247.00;4922526;29;20760;-82
2022/10/02 11:58:28;;;;;;;3.60;1.93;;;;;;;16.26;100.00;99240.53;4934265;28;20195;-83
2022/10/02 12:01:12;;;;;;;3.20;1.80;;;;;;;16.37;100.00;99236.94;5037977;28;20254;-83
2022/10/02 12:04:03;;;;;;;4.07;1.43;;;;;;;16.23;100.00;99222.09;5032183;28;20205;-83
2022/10/02 12:06:54;;;;;;;4.80;1.50;;;;;;;16.44;100.00;99210.53;5002760;28;20258;-83
2022/10/02 12:09:34;;;;;;;2.30;1.50;;;;;;;16.20;100.00;99214.31;5032395;28;20702;-83
2022/10/02 12:12:17;;;;;;;4.43;1.63;;;;;;;16.27;100.00;99211.97;5074121;28;20195;-83
2022/10/02 12:14:55;;;;;;;5.53;1.77;;;;;;;16.35;100.00;99219.34;5064294;28;20189;-82
2022/10/02 12:18:02;;;;;;;3.80;2.00;;;;;;;16.71;100.00;99223.34;5071113;28;20293;-83
2022/10/02 12:26:59;;;;;;;5.57;1.70;;;;;;;16.93;100.00;99220.44;5069908;28;20204;-82
2022/10/02 12:29:42;;;;;;;3.23;1.90;;;;;;;16.52;100.00;99213.38;5070704;28;20301;-82
2022/10/02 12:32:26;;;;;;;4.93;1.83;;;;;;;16.87;100.00;99224.50;5067583;28;20234;-82
2022/10/02 12:35:16;;;;;;;5.33;2.10;;;;;;;17.10;100.00;99216.25;5032425;28;20692;-82
2022/10/02 12:37:57;;;;;;;8.07;2.00;;;;;;;17.19;100.00;99218.09;5085752;28;20235;-82
2022/10/02 12:40:34;;;;;;;5.17;2.10;;;;;;;17.16;100.00;99205.81;4981540;28;20194;-82
2022/10/02 12:43:41;;;;;;;5.07;2.30;;;;;;;16.94;100.00;99211.44;5004628;28;20321;-83
2022/10/02 12:46:31;;;;;;;4.07;2.10;;;;;;;17.01;100.00;99201.03;5010226;28;20198;-83
2022/10/02 12:49:19;;;;;;;5.00;2.17;;;;;;;16.95;100.00;99214.94;5006990;28;20305;-83
2022/10/02 12:52:11;;;;;;;4.43;1.97;;;;;;;16.72;100.00;99208.97;5013663;28;20223;-82